Time;durP1;ratioP1;P1;durP2;ratioP2;P2;SDS_P1;SDS_P2;PMS_P1;PMS_P2;Temp;Humidity;BMP_temperature;BMP_pressure;BME280_temperature;BME280_humidity;BME280_pressure;Samples;Min_cycle;Max_cycle;Signal;HPM_P1;HPM_P2
2022/05/20 00:00:33;;;;;;;6.57;5.87;;;;;23.90;101061.00;;;;2078108;28;20237;-57
2022/05/20 00:01:33;;;;;;;5.83;5.10;;;;;23.90;101055.00;;;;2079243;28;20217;-56
2022/05/20 00:02:33;;;;;;;5.77;5.20;;;;;23.90;101061.00;;;;2079092;28;20484;-57
2022/05/20 00:03:34;;;;;;;6.17;4.97;;;;;23.90;101061.00;;;;2079216;28;20205;-56
2022/05/20 00:04:35;;;;;;;5.43;4.55;;;;;23.90;101053.00;;;;2078500;28;20270;-55
2022/05/20 00:05:36;;;;;;;7.30;6.60;;;;;23.90;101056.00;;;;2077889;28;20739;-56
2022/05/20 00:06:36;;;;;;;5.40;4.90;;;;;23.90;101058.00;;;;2079006;28;20917;-57
2022/05/20 00:07:39;;;;;;;5.40;4.80;;;;;23.90;101052.00;;;;2079135;28;20219;-57
2022/05/20 00:08:39;;;;;;;4.80;4.30;;;;;23.90;101051.00;;;;2078896;28;20220;-56
2022/05/20 00:09:40;;;;;;;6.10;4.70;;;;;23.90;101052.00;;;;2078151;28;20221;-57
2022/05/20 00:10:40;;;;;;;5.80;5.30;;;;;23.90;101047.00;;;;2078429;28;20283;-57
2022/05/20 00:11:40;;;;;;;5.93;5.10;;;;;23.90;101049.00;;;;2078389;28;20217;-57
2022/05/20 00:12:41;;;;;;;5.40;4.90;;;;;23.90;101053.00;;;;2078250;28;20322;-57
2022/05/20 00:13:43;;;;;;;6.53;5.03;;;;;23.90;101045.00;;;;2078432;28;20214;-56
2022/05/20 00:14:43;;;;;;;6.13;5.50;;;;;23.90;101058.00;;;;2077293;28;20880;-57
2022/05/20 00:15:44;;;;;;;7.33;5.87;;;;;23.90;101046.00;;;;2077674;28;20237;-55
2022/05/20 00:16:44;;;;;;;7.80;7.00;;;;;23.90;101046.00;;;;2078340;28;20658;-57
2022/05/20 00:17:44;;;;;;;6.67;6.07;;;;;23.90;101045.00;;;;2078397;28;20220;-57
2022/05/20 00:18:46;;;;;;;7.70;7.00;;;;;23.90;101052.00;;;;2078202;28;20308;-57
2022/05/20 00:19:46;;;;;;;5.13;4.63;;;;;23.90;101053.00;;;;2078091;28;20579;-56
2022/05/20 00:20:47;;;;;;;7.00;6.30;;;;;23.90;101043.00;;;;2078566;28;20205;-56
2022/05/20 00:21:47;;;;;;;6.80;6.20;;;;;23.80;101043.00;;;;2078674;28;20217;-57
2022/05/20 00:22:47;;;;;;;6.93;5.80;;;;;23.80;101053.00;;;;2076940;28;20324;-56
2022/05/20 00:23:48;;;;;;;5.67;5.17;;;;;23.80;101049.00;;;;2077914;28;20213;-56
2022/05/20 00:26:07;;;;;;;7.75;7.05;;;;;23.80;101047.00;;;;2073310;28;20225;-57
2022/05/20 00:27:07;;;;;;;6.87;6.17;;;;;23.80;101051.00;;;;2069719;28;20226;-56
2022/05/20 00:28:08;;;;;;;6.60;5.90;;;;;23.90;101041.00;;;;2070218;28;20218;-56
2022/05/20 00:29:08;;;;;;;5.60;5.10;;;;;23.90;101050.00;;;;2069779;28;20268;-57
2022/05/20 00:30:09;;;;;;;6.30;5.70;;;;;23.90;101039.00;;;;2069405;28;20222;-56
2022/05/20 00:31:10;;;;;;;6.77;5.90;;;;;23.90;101040.00;;;;2069937;28;20214;-57
2022/05/20 00:32:10;;;;;;;6.67;5.60;;;;;23.90;101046.00;;;;2061896;28;20493;-57
2022/05/20 00:33:10;;;;;;;5.80;5.30;;;;;23.90;101043.00;;;;2062189;28;20222;-57
2022/05/20 00:34:11;;;;;;;9.73;8.70;;;;;23.90;101048.00;;;;2070130;28;20245;-57
2022/05/20 00:35:11;;;;;;;8.90;8.00;;;;;23.90;101045.00;;;;2077749;28;20297;-57
2022/05/20 00:36:11;;;;;;;6.00;5.40;;;;;23.90;101046.00;;;;2069975;28;20230;-57
2022/05/20 00:37:12;;;;;;;7.77;6.93;;;;;23.90;101049.00;;;;2070805;28;20994;-57
2022/05/20 00:38:12;;;;;;;7.13;6.40;;;;;23.90;101050.00;;;;2070172;28;20602;-57
2022/05/20 00:39:13;;;;;;;7.00;6.30;;;;;23.90;101044.00;;;;2062066;28;20226;-56
2022/05/20 00:40:17;;;;;;;6.30;5.70;;;;;23.90;101052.00;;;;2069945;28;20238;-57
2022/05/20 00:41:18;;;;;;;7.00;6.40;;;;;23.90;101048.00;;;;2069968;28;20222;-56
2022/05/20 00:42:18;;;;;;;6.23;5.60;;;;;23.90;101048.00;;;;2060887;28;20223;-57
2022/05/20 00:43:24;;;;;;;6.93;6.33;;;;;23.90;101046.00;;;;2074453;28;20221;-55
2022/05/20 00:44:25;;;;;;;5.82;5.30;;;;;23.90;101043.00;;;;2078796;28;20579;-57
2022/05/20 00:45:26;;;;;;;7.05;6.40;;;;;23.90;101045.00;;;;2078119;28;20669;-57
2022/05/20 00:46:27;;;;;;;6.20;5.60;;;;;23.90;101051.00;;;;2078614;28;20214;-57
2022/05/20 00:47:27;;;;;;;6.30;5.70;;;;;23.90;101055.00;;;;2069971;28;20218;-56
2022/05/20 00:48:28;;;;;;;6.93;6.23;;;;;23.90;101061.00;;;;2069997;28;20272;-56
2022/05/20 00:49:29;;;;;;;8.17;7.37;;;;;23.90;101044.00;;;;2070211;28;20222;-57
2022/05/20 00:50:29;;;;;;;5.85;5.30;;;;;23.90;101057.00;;;;2061959;28;20298;-56
2022/05/20 00:51:32;;;;;;;7.60;6.90;;;;;23.90;101050.00;;;;2078147;28;20224;-57
2022/05/20 00:52:33;;;;;;;7.43;6.82;;;;;23.90;101058.00;;;;2078042;28;20229;-55
2022/05/20 00:53:40;;;;;;;7.00;6.30;;;;;23.90;101058.00;;;;2069509;28;20218;-56
2022/05/20 00:54:44;;;;;;;7.63;6.82;;;;;23.90;101054.00;;;;2069701;28;20217;-57
2022/05/20 00:55:44;;;;;;;7.53;6.25;;;;;23.90;101058.00;;;;2068383;28;20210;-57
2022/05/20 00:56:48;;;;;;;8.63;7.53;;;;;23.70;101058.00;;;;2077060;28;20320;-57
2022/05/20 00:58:01;;;;;;;8.15;7.35;;;;;23.80;101056.00;;;;2068775;28;20217;-57
2022/05/20 00:59:01;;;;;;;6.95;6.35;;;;;23.80;101049.00;;;;2070408;28;20218;-57
2022/05/20 01:00:08;;;;;;;5.87;5.27;;;;;23.90;101052.00;;;;2069108;28;20214;-57
2022/05/20 01:01:08;;;;;;;7.35;6.65;;;;;23.70;101055.00;;;;2069066;28;20633;-57
2022/05/20 01:02:11;;;;;;;6.03;5.43;;;;;23.80;101046.00;;;;2078410;28;20248;-55
2022/05/20 01:03:12;;;;;;;7.00;6.32;;;;;23.80;101047.00;;;;2069834;28;20305;-57
2022/05/20 01:04:13;;;;;;;6.45;5.85;;;;;23.80;101053.00;;;;2070279;28;21191;-56
2022/05/20 01:05:35;;;;;;;6.10;5.57;;;;;23.80;101052.00;;;;2068306;28;20252;-56
2022/05/20 01:06:35;;;;;;;7.20;6.50;;;;;23.80;101055.00;;;;2072581;28;20239;-57
2022/05/20 01:07:37;;;;;;;7.20;6.60;;;;;23.80;101051.00;;;;2078144;28;20210;-57
2022/05/20 01:08:38;;;;;;;7.72;6.90;;;;;23.80;101057.00;;;;2069247;28;20637;-62
2022/05/20 01:09:38;;;;;;;6.83;6.10;;;;;23.80;101069.00;;;;2069658;28;20268;-57
2022/05/20 01:10:38;;;;;;;7.53;6.83;;;;;23.80;101071.00;;;;2069427;28;20500;-56
2022/05/20 01:11:39;;;;;;;7.37;6.70;;;;;23.80;101072.00;;;;2077551;28;20938;-57
2022/05/20 01:12:39;;;;;;;6.87;6.23;;;;;23.80;101072.00;;;;2076996;28;20651;-57
2022/05/20 01:13:39;;;;;;;7.20;6.50;;;;;23.80;101069.00;;;;2076423;28;20225;-57
2022/05/20 01:14:40;;;;;;;6.40;5.80;;;;;23.80;101066.00;;;;2078409;28;20245;-57
2022/05/20 01:15:40;;;;;;;7.20;6.50;;;;;23.80;101067.00;;;;2077081;28;20213;-57
2022/05/20 01:16:41;;;;;;;7.73;6.93;;;;;23.80;101069.00;;;;2065747;28;20222;-58
2022/05/20 01:17:42;;;;;;;7.70;7.00;;;;;23.90;101065.00;;;;2077216;28;20210;-56
2022/05/20 01:18:43;;;;;;;6.50;5.90;;;;;23.80;101074.00;;;;2069542;28;20272;-57
2022/05/20 01:19:48;;;;;;;7.10;6.30;;;;;23.80;101068.00;;;;2062065;28;20223;-57
2022/05/20 01:20:54;;;;;;;6.50;5.90;;;;;23.80;101069.00;;;;2070386;28;20284;-57
2022/05/20 01:21:54;;;;;;;8.45;7.03;;;;;23.80;101070.00;;;;2070709;28;20218;-55
2022/05/20 01:23:08;;;;;;;6.80;6.10;;;;;23.80;101066.00;;;;2077851;28;20725;-56
2022/05/20 01:24:08;;;;;;;6.80;6.20;;;;;23.80;101065.00;;;;2078114;28;20689;-56
2022/05/20 01:25:09;;;;;;;8.03;6.70;;;;;23.80;101065.00;;;;2077744;28;20275;-56
2022/05/20 01:26:09;;;;;;;5.83;5.27;;;;;23.80;101068.00;;;;2078039;28;20221;-57
2022/05/20 01:27:10;;;;;;;7.43;6.53;;;;;23.80;101061.00;;;;2078493;28;20213;-56
2022/05/20 01:28:10;;;;;;;8.13;7.43;;;;;23.80;101066.00;;;;2078097;28;20217;-61
2022/05/20 01:29:10;;;;;;;6.93;6.33;;;;;23.80;101060.00;;;;2078665;28;20225;-58
2022/05/20 01:30:12;;;;;;;6.93;6.33;;;;;23.80;101059.00;;;;2077742;28;20299;-59
2022/05/20 01:31:14;;;;;;;7.53;6.82;;;;;23.80;101055.00;;;;2077669;28;20697;-58
2022/05/20 01:32:14;;;;;;;6.40;5.80;;;;;23.80;101053.00;;;;2077772;28;20252;-57
2022/05/20 01:33:35;;;;;;;7.80;6.60;;;;;23.80;101057.00;;;;2077952;28;20569;-58
2022/05/20 01:34:35;;;;;;;7.50;6.75;;;;;23.80;101064.00;;;;2077811;28;20213;-57
2022/05/20 01:35:38;;;;;;;6.87;6.27;;;;;23.80;101050.00;;;;2077445;28;20221;-57
2022/05/20 01:36:38;;;;;;;7.25;5.55;;;;;23.80;101044.00;;;;2078437;28;20253;-57
2022/05/20 01:37:39;;;;;;;7.37;5.00;;;;;23.80;101045.00;;;;2078538;28;20217;-58
2022/05/20 01:38:39;;;;;;;7.47;6.87;;;;;23.80;101050.00;;;;2078505;28;20213;-58
2022/05/20 01:39:42;;;;;;;6.77;6.10;;;;;23.80;101050.00;;;;2078460;28;20243;-58
2022/05/20 01:41:00;;;;;;;7.70;6.97;;;;;23.80;101051.00;;;;2078396;28;20475;-59
2022/05/20 01:42:11;;;;;;;6.35;5.75;;;;;23.80;101050.00;;;;2069461;28;20899;-57
2022/05/20 01:43:20;;;;;;;6.32;5.72;;;;;23.80;101054.00;;;;2066323;28;20271;-57
2022/05/20 01:44:25;;;;;;;7.03;6.40;;;;;23.70;101051.00;;;;2070015;28;20224;-57
2022/05/20 01:45:33;;;;;;;7.50;6.70;;;;;23.80;101056.00;;;;2077138;28;20716;-57
2022/05/20 01:46:54;;;;;;;6.35;5.75;;;;;23.80;101055.00;;;;2062099;28;20227;-57
2022/05/20 01:48:37;;;;;;;6.53;5.93;;;;;23.70;101047.00;;;;2074431;28;20684;-57
2022/05/20 01:49:54;;;;;;;7.78;7.07;;;;;23.70;101045.00;;;;2079530;28;20707;-56
2022/05/20 01:50:55;;;;;;;5.70;4.82;;;;;23.80;101052.00;;;;2072271;28;20216;-57
2022/05/20 01:51:57;;;;;;;6.03;5.00;;;;;23.70;101051.00;;;;2072706;28;20221;-57
2022/05/20 01:53:13;;;;;;;6.78;6.15;;;;;23.70;101055.00;;;;2071592;28;20333;-57
2022/05/20 01:54:43;;;;;;;7.00;6.30;;;;;23.70;101051.00;;;;2073389;28;20213;-57
2022/05/20 01:55:52;;;;;;;6.30;5.35;;;;;23.70;101048.00;;;;2073285;28;20209;-57
2022/05/20 01:56:56;;;;;;;8.57;5.55;;;;;23.70;101043.00;;;;2070719;28;20218;-58
2022/05/20 01:57:58;;;;;;;8.25;5.40;;;;;23.70;101042.00;;;;2056241;28;20298;-56
2022/05/20 01:59:29;;;;;;;5.68;5.18;;;;;23.70;101041.00;;;;2063853;28;20265;-58
2022/05/20 02:00:31;;;;;;;5.32;4.82;;;;;23.70;101044.00;;;;2071779;28;20245;-58
2022/05/20 02:01:37;;;;;;;7.63;6.63;;;;;23.70;101036.00;;;;2063304;28;20761;-56
2022/05/20 02:02:50;;;;;;;6.38;5.78;;;;;23.70;101033.00;;;;2071784;28;20313;-57
2022/05/20 02:03:53;;;;;;;6.40;5.82;;;;;23.70;101028.00;;;;2078068;28;20224;-57
2022/05/20 02:04:57;;;;;;;6.95;6.35;;;;;23.70;101023.00;;;;2078595;28;20244;-58
2022/05/20 02:06:09;;;;;;;6.85;6.13;;;;;23.70;101024.00;;;;2054404;28;21179;-57
2022/05/20 02:07:16;;;;;;;5.78;4.72;;;;;23.70;101032.00;;;;2059071;28;20222;-58
2022/05/20 02:08:35;;;;;;;6.97;6.38;;;;;23.70;101028.00;;;;2071378;28;20250;-58
2022/05/20 02:09:39;;;;;;;6.07;5.57;;;;;23.70;101027.00;;;;2079178;28;20213;-58
2022/05/20 02:10:57;;;;;;;6.15;5.57;;;;;23.70;101022.00;;;;2070025;28;20209;-58
2022/05/20 02:11:58;;;;;;;5.93;5.43;;;;;23.70;101027.00;;;;2074420;28;20229;-58
2022/05/20 02:12:59;;;;;;;7.33;6.63;;;;;23.70;101030.00;;;;2078520;28;20209;-57
2022/05/20 02:14:17;;;;;;;7.03;6.43;;;;;23.70;101027.00;;;;2078806;28;20237;-58
2022/05/20 02:15:21;;;;;;;5.80;5.30;;;;;23.70;101023.00;;;;2076062;28;20291;-58
2022/05/20 02:16:25;;;;;;;6.38;5.78;;;;;23.70;101023.00;;;;2065203;28;20241;-58
2022/05/20 02:17:33;;;;;;;5.32;4.82;;;;;23.70;101019.00;;;;2070931;28;20247;-57
2022/05/20 02:18:42;;;;;;;6.05;5.45;;;;;23.70;101022.00;;;;2070430;28;20218;-57
2022/05/20 02:20:00;;;;;;;6.43;5.90;;;;;23.70;101017.00;;;;2065400;28;20322;-57
2022/05/20 02:21:05;;;;;;;5.10;4.70;;;;;23.70;101025.00;;;;2064366;28;20253;-55
2022/05/20 02:22:08;;;;;;;5.50;5.00;;;;;23.70;101014.00;;;;2062791;28;20214;-57
2022/05/20 02:23:21;;;;;;;4.95;4.55;;;;;23.70;101019.00;;;;2070919;28;20611;-56
2022/05/20 02:24:22;;;;;;;5.63;5.13;;;;;23.70;101024.00;;;;2072018;28;20283;-57
2022/05/20 02:25:28;;;;;;;7.45;6.78;;;;;23.70;101020.00;;;;2070115;28;20210;-56
2022/05/20 02:26:29;;;;;;;6.32;5.72;;;;;23.70;101021.00;;;;2070594;28;20210;-56
2022/05/20 02:27:32;;;;;;;7.75;7.05;;;;;23.70;101008.00;;;;2070977;28;20218;-57
2022/05/20 02:28:37;;;;;;;7.50;6.85;;;;;23.70;101013.00;;;;2078736;28;20300;-57
2022/05/20 02:29:40;;;;;;;5.65;5.15;;;;;23.70;101013.00;;;;2071297;28;20222;-57
2022/05/20 02:30:41;;;;;;;5.90;5.32;;;;;23.70;101006.00;;;;2070602;28;20214;-57
2022/05/20 02:31:46;;;;;;;7.37;6.70;;;;;23.70;101015.00;;;;2062541;28;20219;-57
2022/05/20 02:33:05;;;;;;;7.22;6.53;;;;;23.70;100999.00;;;;2070969;28;20281;-57
2022/05/20 02:34:05;;;;;;;6.22;5.40;;;;;23.70;101011.00;;;;2072776;28;20301;-56
2022/05/20 02:35:06;;;;;;;6.60;5.90;;;;;23.70;101003.00;;;;2078251;28;20214;-58
2022/05/20 02:36:17;;;;;;;6.77;6.07;;;;;23.70;101006.00;;;;2077787;28;20214;-58
2022/05/20 02:37:31;;;;;;;6.97;6.28;;;;;23.60;101004.00;;;;2078345;28;20283;-58
2022/05/20 02:38:31;;;;;;;6.28;5.55;;;;;23.60;101011.00;;;;2078545;28;20209;-57
2022/05/20 02:39:33;;;;;;;7.57;6.97;;;;;23.60;101004.00;;;;2079153;28;20213;-57
2022/05/20 02:40:33;;;;;;;8.18;7.38;;;;;23.70;101007.00;;;;2079985;28;20218;-58
2022/05/20 02:41:33;;;;;;;7.73;7.03;;;;;23.70;101007.00;;;;2072437;28;20705;-57
2022/05/20 02:42:34;;;;;;;7.03;6.47;;;;;23.70;101010.00;;;;2070914;28;20284;-57
2022/05/20 02:43:34;;;;;;;7.47;6.87;;;;;23.70;101002.00;;;;2078891;28;20210;-58
2022/05/20 02:44:34;;;;;;;7.60;6.90;;;;;23.70;101005.00;;;;2071081;28;20209;-57
2022/05/20 02:45:35;;;;;;;7.37;6.77;;;;;23.70;101008.00;;;;2070135;28;20205;-58
2022/05/20 02:46:36;;;;;;;7.38;6.57;;;;;23.70;101007.00;;;;2061495;28;20196;-57
2022/05/20 02:47:37;;;;;;;6.22;5.63;;;;;23.70;101012.00;;;;2061931;28;20622;-57
2022/05/20 02:48:37;;;;;;;6.10;5.50;;;;;23.70;101010.00;;;;2070519;28;20353;-57
2022/05/20 02:49:37;;;;;;;5.60;5.10;;;;;23.70;101011.00;;;;2070386;28;20729;-58
2022/05/20 02:50:38;;;;;;;5.30;4.80;;;;;23.70;101013.00;;;;2071095;28;20651;-57
2022/05/20 02:51:38;;;;;;;5.10;4.70;;;;;23.70;101007.00;;;;2070178;28;20225;-58
2022/05/20 02:52:38;;;;;;;7.47;6.70;;;;;23.70;101013.00;;;;2069102;28;20226;-57
2022/05/20 02:53:39;;;;;;;5.37;4.87;;;;;23.70;101014.00;;;;2070292;28;20249;-57
2022/05/20 02:54:39;;;;;;;8.10;7.40;;;;;23.60;101011.00;;;;2069895;28;20216;-57
2022/05/20 02:55:39;;;;;;;4.37;3.97;;;;;23.60;101010.00;;;;2069434;28;20298;-58
2022/05/20 02:56:40;;;;;;;8.93;6.20;;;;;23.60;101009.00;;;;2062563;28;20218;-57
2022/05/20 02:57:41;;;;;;;6.77;6.17;;;;;23.60;101018.00;;;;2070319;28;20261;-57
2022/05/20 03:04:12;;;;;;;10.02;9.00;;;;;23.70;100992.00;;;;2071132;28;20215;-58
2022/05/20 03:05:13;;;;;;;5.93;4.85;;;;;23.60;100997.00;;;;2062761;28;20223;-57
2022/05/20 03:06:13;;;;;;;6.97;6.27;;;;;23.60;100992.00;;;;2068520;28;20254;-55
2022/05/20 03:07:13;;;;;;;5.60;5.10;;;;;23.60;100992.00;;;;2087018;28;20258;-57
2022/05/20 03:08:14;;;;;;;4.90;4.50;;;;;23.60;100989.00;;;;2078421;28;20225;-57
2022/05/20 03:09:15;;;;;;;8.23;7.00;;;;;23.60;100994.00;;;;2079003;28;20266;-57
2022/05/20 03:10:16;;;;;;;5.07;4.57;;;;;23.60;101003.00;;;;2079781;28;20256;-57
2022/05/20 03:11:16;;;;;;;5.87;5.23;;;;;23.60;101003.00;;;;2078767;28;20213;-57
2022/05/20 03:12:17;;;;;;;6.63;6.03;;;;;23.70;101000.00;;;;2078734;28;20251;-56
2022/05/20 03:13:17;;;;;;;5.97;5.40;;;;;23.60;101007.00;;;;2078970;28;20213;-56
2022/05/20 03:14:19;;;;;;;5.77;4.83;;;;;23.60;101006.00;;;;2078919;28;20217;-55
2022/05/20 03:15:20;;;;;;;6.40;5.80;;;;;23.60;101004.00;;;;2078056;28;20268;-56
2022/05/20 03:16:20;;;;;;;7.13;6.43;;;;;23.60;101016.00;;;;2079395;28;20587;-57
2022/05/20 03:17:20;;;;;;;6.33;5.67;;;;;23.60;101014.00;;;;2077626;28;20271;-57
2022/05/20 03:18:21;;;;;;;6.90;6.23;;;;;23.60;101012.00;;;;2078773;28;20217;-57
2022/05/20 03:19:21;;;;;;;6.60;6.00;;;;;23.60;101017.00;;;;2079712;28;20240;-57
2022/05/20 03:20:22;;;;;;;7.47;6.73;;;;;23.60;101013.00;;;;2079372;28;20213;-56
2022/05/20 03:21:23;;;;;;;6.20;5.70;;;;;23.60;101021.00;;;;2070985;28;20210;-57
2022/05/20 03:22:23;;;;;;;8.33;7.53;;;;;23.40;101017.00;;;;2069867;28;20457;-57
2022/05/20 03:23:23;;;;;;;7.33;6.63;;;;;23.60;101019.00;;;;2079369;28;20226;-56
2022/05/20 03:24:24;;;;;;;7.77;6.97;;;;;23.60;101016.00;;;;2078605;28;20214;-56
2022/05/20 03:25:24;;;;;;;7.00;6.40;;;;;23.60;101020.00;;;;2078220;28;20237;-56
2022/05/20 03:26:24;;;;;;;6.90;6.30;;;;;23.60;101014.00;;;;2078823;28;20209;-57
2022/05/20 03:27:25;;;;;;;5.70;5.10;;;;;23.60;101016.00;;;;2078522;28;20318;-57
2022/05/20 03:28:25;;;;;;;6.37;5.40;;;;;23.60;101009.00;;;;2078654;28;20217;-57
2022/05/20 03:29:25;;;;;;;5.93;5.27;;;;;23.60;101016.00;;;;2078841;28;20213;-57
2022/05/20 03:30:27;;;;;;;4.57;4.20;;;;;23.60;101017.00;;;;2078878;28;20224;-57
2022/05/20 03:31:27;;;;;;;6.65;6.15;;;;;23.70;101020.00;;;;2070803;28;20221;-56
2022/05/20 03:32:27;;;;;;;6.03;5.53;;;;;23.60;101019.00;;;;2070430;28;20214;-58
2022/05/20 03:33:28;;;;;;;5.63;5.10;;;;;23.60;101015.00;;;;2078711;28;20268;-57
2022/05/20 03:34:28;;;;;;;6.33;5.77;;;;;23.60;101010.00;;;;2079265;28;20288;-58
2022/05/20 03:35:28;;;;;;;7.50;6.80;;;;;23.60;101009.00;;;;2078753;28;20682;-57
2022/05/20 03:36:29;;;;;;;8.03;7.30;;;;;23.60;100996.00;;;;2079422;28;20217;-57
2022/05/20 03:37:29;;;;;;;8.07;7.27;;;;;23.60;101005.00;;;;2078202;28;20213;-57
2022/05/20 03:38:30;;;;;;;8.13;7.30;;;;;23.60;101005.00;;;;2078756;28;20237;-58
2022/05/20 03:39:30;;;;;;;6.67;6.07;;;;;23.60;100998.00;;;;2077581;28;20217;-59
2022/05/20 03:40:30;;;;;;;6.43;5.80;;;;;23.50;101001.00;;;;2068820;28;20919;-61
2022/05/20 03:41:31;;;;;;;6.13;5.43;;;;;23.60;100994.00;;;;2077938;28;20264;-56
2022/05/20 03:42:31;;;;;;;8.50;7.80;;;;;23.60;100998.00;;;;2077501;28;20624;-57
2022/05/20 03:43:33;;;;;;;6.67;5.77;;;;;23.50;101000.00;;;;2077800;28;20217;-58
2022/05/20 03:44:33;;;;;;;6.80;6.20;;;;;23.60;100994.00;;;;2078540;28;20217;-56
2022/05/20 03:45:33;;;;;;;6.37;5.77;;;;;23.60;101003.00;;;;2077956;28;20220;-56
2022/05/20 03:46:39;;;;;;;7.83;7.13;;;;;23.60;100995.00;;;;2067033;28;20207;-58
2022/05/20 03:47:39;;;;;;;6.05;5.45;;;;;23.60;101000.00;;;;2069300;28;20273;-57
2022/05/20 03:48:40;;;;;;;8.17;5.80;;;;;23.60;100997.00;;;;2076784;28;20257;-58
2022/05/20 03:49:40;;;;;;;6.30;5.80;;;;;23.50;100996.00;;;;2077989;28;20283;-56
2022/05/20 03:50:41;;;;;;;7.93;7.23;;;;;23.60;100998.00;;;;2070102;28;20224;-57
2022/05/20 03:51:41;;;;;;;6.30;5.73;;;;;23.60;101004.00;;;;2070037;28;20218;-58
2022/05/20 03:52:41;;;;;;;6.73;6.10;;;;;23.60;100998.00;;;;2069641;28;20233;-57
2022/05/20 03:53:42;;;;;;;6.20;5.60;;;;;23.60;101001.00;;;;2069843;28;20206;-57
2022/05/20 03:54:43;;;;;;;6.23;5.63;;;;;23.60;101000.00;;;;2069532;28;20215;-58
2022/05/20 03:55:43;;;;;;;6.43;5.93;;;;;23.50;101005.00;;;;2066841;28;20222;-58
2022/05/20 03:56:43;;;;;;;5.23;4.70;;;;;23.50;101009.00;;;;2061834;28;20318;-57
2022/05/20 03:57:44;;;;;;;5.13;4.70;;;;;23.60;100973.00;;;;2069031;28;20210;-57
2022/05/20 03:58:44;;;;;;;6.90;6.30;;;;;23.60;101006.00;;;;2069888;28;20221;-57
2022/05/20 03:59:45;;;;;;;5.50;5.00;;;;;23.50;100991.00;;;;2069636;28;20214;-58
2022/05/20 04:02:06;;;;;;;6.30;5.55;;;;;23.50;101000.00;;;;2069360;28;20230;-56
2022/05/20 04:03:06;;;;;;;6.82;6.18;;;;;23.60;101001.00;;;;2070223;28;20880;-59
2022/05/20 04:04:06;;;;;;;4.97;4.57;;;;;23.60;101006.00;;;;2070848;28;20215;-56
2022/05/20 04:05:07;;;;;;;7.77;7.07;;;;;23.60;101008.00;;;;2070594;28;20233;-58
2022/05/20 04:06:07;;;;;;;5.73;5.23;;;;;23.60;101009.00;;;;2068687;28;20360;-58
2022/05/20 04:07:13;;;;;;;8.10;7.40;;;;;23.50;101015.00;;;;2068878;28;20333;-57
2022/05/20 04:08:13;;;;;;;8.80;7.93;;;;;23.60;101001.00;;;;2061590;28;20218;-58
2022/05/20 04:09:13;;;;;;;6.20;5.70;;;;;23.60;101007.00;;;;2061591;28;20219;-58
2022/05/20 04:10:14;;;;;;;7.17;6.47;;;;;23.60;101015.00;;;;2077426;28;20218;-57
2022/05/20 04:11:14;;;;;;;7.57;6.50;;;;;23.50;101005.00;;;;2070460;28;20218;-57
2022/05/20 04:12:28;;;;;;;6.77;5.63;;;;;23.50;101005.00;;;;2069627;28;20217;-56
2022/05/20 04:13:29;;;;;;;6.20;5.60;;;;;23.60;101010.00;;;;2055110;28;20223;-56
2022/05/20 04:14:29;;;;;;;5.37;4.87;;;;;23.50;101015.00;;;;2061879;28;20627;-57
2022/05/20 04:15:29;;;;;;;6.33;5.73;;;;;23.50;101019.00;;;;2066859;28;20206;-57
2022/05/20 04:16:30;;;;;;;7.10;6.50;;;;;23.50;101011.00;;;;2070107;28;20305;-56
2022/05/20 04:17:30;;;;;;;7.53;6.83;;;;;23.50;101014.00;;;;2070228;28;20292;-56
2022/05/20 04:18:31;;;;;;;5.60;5.10;;;;;23.50;101018.00;;;;2070181;28;20229;-55
2022/05/20 04:19:32;;;;;;;4.43;4.03;;;;;23.50;101016.00;;;;2061432;28;20226;-56
2022/05/20 04:20:33;;;;;;;5.93;5.43;;;;;23.50;101012.00;;;;2053474;28;20706;-57
2022/05/20 04:21:34;;;;;;;5.90;5.40;;;;;23.50;101023.00;;;;2061541;28;20215;-56
2022/05/20 04:22:36;;;;;;;6.10;5.60;;;;;23.50;101019.00;;;;2062068;28;20520;-57
2022/05/20 04:23:37;;;;;;;5.93;5.25;;;;;23.50;101021.00;;;;2069677;28;20210;-62
2022/05/20 04:24:37;;;;;;;5.93;5.43;;;;;23.50;101024.00;;;;2077288;28;20321;-59
2022/05/20 04:25:37;;;;;;;8.63;7.77;;;;;23.50;101015.00;;;;2069978;28;20222;-56
2022/05/20 04:26:38;;;;;;;9.80;8.90;;;;;23.50;101020.00;;;;2069636;28;20697;-59
2022/05/20 04:27:39;;;;;;;11.37;8.10;;;;;23.50;101020.00;;;;2076072;28;20583;-58
2022/05/20 04:28:39;;;;;;;8.00;7.30;;;;;23.50;101027.00;;;;2078056;28;20216;-58
2022/05/20 04:29:40;;;;;;;8.60;7.80;;;;;23.50;101025.00;;;;2070328;28;20453;-58
2022/05/20 04:30:40;;;;;;;8.40;7.57;;;;;23.50;101017.00;;;;2078410;28;20237;-58
2022/05/20 04:31:44;;;;;;;10.63;8.87;;;;;23.50;100998.00;;;;2078913;28;20216;-57
2022/05/20 04:32:45;;;;;;;9.15;8.25;;;;;23.50;101018.00;;;;2078375;28;20213;-58
2022/05/20 04:33:45;;;;;;;8.17;7.47;;;;;23.50;101020.00;;;;2077978;28;20221;-58
2022/05/20 04:34:45;;;;;;;9.00;7.83;;;;;23.60;101011.00;;;;2078931;28;20210;-59
2022/05/20 04:35:46;;;;;;;11.90;9.40;;;;;23.60;101020.00;;;;2077544;28;20221;-57
2022/05/20 04:36:46;;;;;;;9.47;8.37;;;;;23.60;101011.00;;;;2070093;28;20221;-57
2022/05/20 04:37:47;;;;;;;10.40;8.43;;;;;23.60;101011.00;;;;2078104;28;20214;-56
2022/05/20 04:38:47;;;;;;;8.97;8.17;;;;;23.60;101013.00;;;;2079036;28;20324;-56
2022/05/20 04:39:47;;;;;;;11.67;10.47;;;;;23.60;101010.00;;;;2078671;28;20218;-59
2022/05/20 04:46:56;;;;;;;9.07;8.27;;;;;23.60;101008.00;;;;2076552;28;20297;-57
2022/05/20 04:47:30;;;;;;;9.35;6.85;;;;;23.30;101004.00;;;;2068194;28;20217;-57
2022/05/20 04:48:31;;;;;;;8.23;7.33;;;;;23.60;101014.00;;;;2070235;28;20272;-58
2022/05/20 04:49:32;;;;;;;8.73;7.83;;;;;23.60;101013.00;;;;2070151;28;20481;-57
2022/05/20 04:50:32;;;;;;;9.70;8.80;;;;;23.60;101013.00;;;;2070537;28;20237;-57
2022/05/20 04:51:33;;;;;;;8.70;7.90;;;;;23.60;101022.00;;;;2070549;28;20244;-57
2022/05/20 04:52:33;;;;;;;8.30;7.50;;;;;23.60;101021.00;;;;2070617;28;20276;-57
2022/05/20 04:55:13;;;;;;;9.70;8.70;;;;;23.60;101017.00;;;;2060377;28;20381;-57
2022/05/20 04:56:13;;;;;;;9.47;8.67;;;;;23.70;101020.00;;;;2051141;28;20224;-57
2022/05/20 04:57:30;;;;;;;8.93;8.13;;;;;23.60;101018.00;;;;2052861;28;20251;-57
2022/05/20 04:58:31;;;;;;;9.25;8.35;;;;;23.50;101013.00;;;;2052700;28;20366;-55
2022/05/20 04:59:35;;;;;;;10.37;9.37;;;;;23.60;101004.00;;;;2050396;28;20726;-55
2022/05/20 05:00:35;;;;;;;7.90;7.15;;;;;23.60;101014.00;;;;2054615;28;20748;-55
2022/05/20 05:01:36;;;;;;;9.60;8.70;;;;;23.50;101008.00;;;;2068707;28;20229;-57
2022/05/20 05:02:36;;;;;;;9.13;8.23;;;;;23.60;101015.00;;;;2069732;28;20402;-57
2022/05/20 05:03:37;;;;;;;9.53;8.63;;;;;23.60;101012.00;;;;2069788;28;20217;-56
2022/05/20 05:04:37;;;;;;;9.00;8.20;;;;;23.60;101000.00;;;;2070360;28;20599;-56
2022/05/20 05:05:37;;;;;;;9.87;8.97;;;;;23.60;101014.00;;;;2070064;28;20695;-57
2022/05/20 05:06:38;;;;;;;7.57;6.83;;;;;23.60;101005.00;;;;2070188;28;20229;-55
2022/05/20 05:07:39;;;;;;;10.60;8.23;;;;;23.50;101001.00;;;;2070159;28;20242;-58
2022/05/20 05:08:40;;;;;;;10.82;9.32;;;;;23.60;101009.00;;;;2070522;28;20230;-57
2022/05/20 05:09:40;;;;;;;10.00;9.10;;;;;23.60;101006.00;;;;2073629;28;20268;-57
2022/05/20 05:10:41;;;;;;;11.23;10.13;;;;;23.60;101005.00;;;;2069026;28;20758;-57
2022/05/20 05:11:41;;;;;;;14.07;12.67;;;;;23.60;101004.00;;;;2060540;28;20219;-58
2022/05/20 05:12:42;;;;;;;17.40;15.70;;;;;23.60;101006.00;;;;2069818;28;20572;-57
2022/05/20 05:13:42;;;;;;;29.63;26.57;;;;;23.70;101003.00;;;;2069699;28;20222;-58
2022/05/20 05:14:47;;;;;;;17.63;14.77;;;;;23.60;100983.00;;;;2069825;28;20221;-57
2022/05/20 05:15:47;;;;;;;31.10;27.83;;;;;23.60;101004.00;;;;2068853;28;20212;-56
2022/05/20 05:16:48;;;;;;;35.57;29.53;;;;;23.60;100999.00;;;;2069879;28;20236;-56
2022/05/20 05:19:07;;;;;;;30.10;25.55;;;;;23.60;100989.00;;;;2070445;28;20218;-58
2022/05/20 05:20:10;;;;;;;36.67;30.03;;;;;23.60;100995.00;;;;2070665;28;20218;-56
2022/05/20 05:21:14;;;;;;;34.65;29.30;;;;;23.60;100994.00;;;;2074749;28;20434;-56
2022/05/20 05:22:15;;;;;;;40.78;36.35;;;;;23.60;100992.00;;;;2076346;28;20217;-57
2022/05/20 05:23:15;;;;;;;35.03;29.50;;;;;23.60;100988.00;;;;2077635;28;20249;-57
2022/05/20 05:24:15;;;;;;;41.23;35.80;;;;;23.60;100985.00;;;;2076771;28;20214;-57
2022/05/20 05:25:16;;;;;;;50.00;42.60;;;;;23.60;100989.00;;;;2077111;28;20267;-55